createdAt,value
2022-10-09T00:01:03.331Z,101413.16
2022-10-09T00:07:48.730Z,101413.47
2022-10-09T00:14:36.968Z,101405.34
2022-10-09T00:21:25.235Z,101404.56
2022-10-09T00:28:10.593Z,101193.75
2022-10-09T00:34:58.556Z,101393.47
2022-10-09T00:41:43.967Z,101398.56
2022-10-09T00:48:29.485Z,101406.78
2022-10-09T00:55:18.448Z,101392.34
2022-10-09T01:02:03.875Z,101402.09
2022-10-09T01:08:57.668Z,101266.75
2022-10-09T01:15:54.051Z,101380.34
2022-10-09T01:23:00.532Z,101380.13
2022-10-09T01:29:55.191Z,101371.91
2022-10-09T01:36:42.280Z,101360.44
2022-10-09T01:43:27.908Z,101361.09
2022-10-09T01:50:26.200Z,101363.59
2022-10-09T01:57:13.803Z,101359.84
2022-10-09T02:04:04.948Z,101296.00
2022-10-09T02:10:57.185Z,101354.75
2022-10-09T02:17:48.333Z,101262.97
2022-10-09T02:24:34.117Z,101345.44
2022-10-09T02:31:28.690Z,101330.50
2022-10-09T02:38:14.693Z,101340.69
2022-10-09T02:45:00.069Z,101270.91
2022-10-09T03:05:42.754Z,101321.47
2022-10-09T03:12:28.303Z,101332.53
2022-10-09T03:19:13.645Z,101326.84
2022-10-09T03:26:05.379Z,101317.25
2022-10-09T03:32:51.038Z,101321.59
2022-10-09T03:39:36.733Z,101326.53
2022-10-09T03:46:24.758Z,101323.19
2022-10-09T03:53:11.449Z,101283.06
2022-10-09T03:59:56.783Z,101291.09
2022-10-09T04:06:44.865Z,101329.50
2022-10-09T04:13:30.580Z,101337.75
2022-10-09T04:20:15.997Z,101333.44
2022-10-09T04:27:03.985Z,101323.28
2022-10-09T04:33:49.345Z,101322.47
2022-10-09T04:40:34.652Z,101324.72
2022-10-09T04:47:22.749Z,101319.59
2022-10-09T04:54:08.571Z,101317.69
2022-10-09T05:00:53.955Z,101314.44
2022-10-09T05:07:41.895Z,101308.38
2022-10-09T05:14:27.544Z,101297.31
2022-10-09T05:21:13.237Z,101308.22
2022-10-09T05:28:02.571Z,101307.59
2022-10-09T05:34:48.095Z,101322.94
2022-10-09T05:41:33.821Z,101318.22
2022-10-09T05:48:22.238Z,101315.97
2022-10-09T05:55:08.684Z,101320.56
2022-10-09T06:01:55.125Z,101318.50
2022-10-09T06:08:43.078Z,101317.84
2022-10-09T06:15:28.540Z,101320.66
2022-10-09T06:22:13.893Z,101301.16
2022-10-09T06:29:03.673Z,101315.13
2022-10-09T06:35:49.018Z,101327.63
2022-10-09T06:42:34.350Z,101332.09
2022-10-09T06:49:29.114Z,101323.44
2022-10-09T06:56:16.545Z,101220.19
2022-10-09T07:03:02.487Z,101341.31
2022-10-09T07:09:50.388Z,101320.59
2022-10-09T07:16:39.077Z,101321.50
2022-10-09T07:23:24.481Z,101322.97
2022-10-09T07:30:14.401Z,101313.94
2022-10-09T07:36:59.758Z,101302.75
2022-10-09T07:43:46.704Z,101319.84
2022-10-09T07:50:34.668Z,101323.97
2022-10-09T07:57:20.027Z,101314.63
2022-10-09T08:04:07.696Z,101302.19
2022-10-09T08:10:56.227Z,101295.50
2022-10-09T08:17:41.624Z,101313.84
2022-10-09T08:24:26.964Z,101217.53
2022-10-09T08:31:20.012Z,101192.75
2022-10-09T08:38:05.532Z,101292.00
2022-10-09T08:44:51.169Z,101286.59
2022-10-09T08:51:42.200Z,101285.78
2022-10-09T08:58:34.436Z,101277.94
2022-10-09T09:05:35.432Z,101275.22
2022-10-09T09:12:34.165Z,101276.97
2022-10-09T09:19:41.016Z,101270.38
2022-10-09T09:26:26.998Z,101274.88
2022-10-09T09:33:23.884Z,101260.00
2022-10-09T09:40:36.307Z,101255.84
2022-10-09T09:47:31.193Z,101245.78
2022-10-09T09:54:25.363Z,101226.53
2022-10-09T10:01:20.237Z,101228.00
2022-10-09T10:08:18.570Z,101208.13
2022-10-09T10:15:06.969Z,101200.06
2022-10-09T10:21:58.103Z,101208.03
2022-10-09T10:28:52.920Z,101192.03
2022-10-09T10:35:45.188Z,101183.53
2022-10-09T10:42:47.129Z,101168.66
2022-10-09T10:49:33.940Z,101158.53
2022-10-09T10:56:32.941Z,101156.44
2022-10-09T11:03:40.190Z,101126.22
2022-10-09T11:10:39.386Z,101132.09
2022-10-09T11:17:41.947Z,101089.34
2022-10-09T11:25:06.457Z,101107.00
2022-10-09T11:31:56.808Z,101113.44
2022-10-09T11:38:51.337Z,101106.88
2022-10-09T11:45:44.574Z,101093.38
2022-10-09T11:52:42.740Z,101075.28
2022-10-09T11:59:35.116Z,101057.97
2022-10-09T12:06:22.480Z,101024.19
2022-10-09T12:13:19.012Z,101051.78
2022-10-09T12:20:12.012Z,101036.63
2022-10-09T12:27:03.225Z,101029.28
2022-10-09T12:33:52.441Z,101010.63
2022-10-09T12:40:40.837Z,100994.19
2022-10-09T12:47:30.075Z,100967.59
2022-10-09T12:54:18.759Z,100970.28
2022-10-09T13:01:13.557Z,100962.88
2022-10-09T13:07:59.064Z,100962.28
2022-10-09T13:14:48.080Z,100929.19
2022-10-09T13:21:37.265Z,100935.91
2022-10-09T13:28:24.649Z,100831.34
2022-10-09T13:35:11.132Z,100911.53
2022-10-09T13:42:02.129Z,100896.59
2022-10-09T13:48:47.840Z,100866.38
2022-10-09T13:55:33.481Z,100875.44
2022-10-09T14:02:21.436Z,100875.53
2022-10-09T14:09:07.516Z,100865.03
2022-10-09T14:15:53.199Z,100850.94
2022-10-09T14:22:41.218Z,100829.88
2022-10-09T14:29:26.624Z,100833.66
2022-10-09T14:36:15.105Z,100822.34
2022-10-09T14:43:03.108Z,100821.88
2022-10-09T14:49:48.556Z,100817.22
2022-10-09T14:56:34.282Z,100811.44
2022-10-09T15:03:22.296Z,100803.78
2022-10-09T15:10:09.134Z,100793.81
2022-10-09T15:16:54.648Z,100792.84
2022-10-09T15:23:42.651Z,100782.41
2022-10-09T15:30:28.037Z,100776.13
2022-10-09T15:37:13.383Z,100780.69
2022-10-09T15:44:05.004Z,100763.41
2022-10-09T15:50:53.518Z,100758.03
2022-10-09T15:57:38.960Z,100749.66
2022-10-09T16:04:28.000Z,100744.97
2022-10-09T16:11:19.007Z,100744.50
2022-10-09T16:18:07.391Z,100734.97
2022-10-09T16:24:55.318Z,100735.44
2022-10-09T16:31:40.803Z,100733.00
2022-10-09T16:38:26.206Z,100736.94
2022-10-09T16:45:14.760Z,100741.63
2022-10-09T16:52:02.652Z,100732.81
2022-10-09T16:58:48.423Z,100740.72
2022-10-09T17:05:41.807Z,100725.78
2022-10-09T17:12:27.272Z,100739.25
2022-10-09T17:19:12.909Z,100738.31
2022-10-09T17:26:01.054Z,100730.03
2022-10-09T17:32:46.562Z,100714.44
2022-10-09T17:39:32.234Z,100735.47
2022-10-09T17:46:21.913Z,100718.09
2022-10-09T17:53:08.009Z,100725.78
2022-10-09T17:59:53.382Z,100730.56
2022-10-09T18:06:41.365Z,100723.75
2022-10-09T18:13:26.717Z,100720.84
2022-10-09T18:20:12.777Z,100718.88
2022-10-09T18:27:03.385Z,100718.81
2022-10-09T18:33:50.004Z,100630.91
2022-10-09T18:40:35.777Z,100714.84
2022-10-09T18:47:28.358Z,100702.00
2022-10-09T18:54:17.914Z,100720.16
2022-10-09T19:01:12.741Z,100703.22
2022-10-09T19:07:58.264Z,100709.25
2022-10-09T19:14:43.609Z,100701.81
2022-10-09T19:21:31.843Z,100702.38
2022-10-09T19:28:17.502Z,100699.94
2022-10-09T19:35:02.973Z,100673.91
2022-10-09T19:41:51.198Z,100676.19
2022-10-09T19:48:36.909Z,100670.41
2022-10-09T19:55:22.273Z,100661.34
2022-10-09T20:02:10.582Z,100662.47
2022-10-09T20:08:56.713Z,100670.25
2022-10-09T20:15:45.542Z,100626.19
2022-10-09T20:22:33.506Z,100659.78
2022-10-09T20:29:19.040Z,100656.75
2022-10-09T20:36:09.331Z,100661.63
2022-10-09T20:42:57.298Z,100651.66
2022-10-09T20:49:43.540Z,100653.75
2022-10-09T20:56:31.076Z,100649.00
2022-10-09T21:03:19.014Z,100643.31
2022-10-09T21:10:05.172Z,100644.13
2022-10-09T21:16:50.500Z,100652.94
2022-10-09T21:23:38.846Z,100634.19
2022-10-09T21:30:24.175Z,100639.75
2022-10-09T21:37:20.782Z,100634.56
2022-10-09T21:44:10.830Z,100628.03
2022-10-09T21:50:56.234Z,100634.16
2022-10-09T21:57:45.069Z,100629.81
2022-10-09T22:04:33.367Z,100511.34
2022-10-09T22:11:19.586Z,100619.69
2022-10-09T22:18:05.161Z,100623.31
2022-10-09T22:24:53.372Z,100614.13
2022-10-09T22:31:39.026Z,100614.81
2022-10-09T22:38:24.345Z,100607.66
2022-10-09T22:45:13.613Z,100603.41
2022-10-09T22:51:59.105Z,100606.69
2022-10-09T22:58:44.658Z,100604.47
2022-10-09T23:05:32.643Z,100526.41
2022-10-09T23:12:17.989Z,100588.00
2022-10-09T23:19:06.949Z,100580.41
2022-10-09T23:25:55.242Z,100574.25
2022-10-09T23:32:40.593Z,100565.81
2022-10-09T23:39:26.522Z,100579.06
2022-10-09T23:46:16.875Z,100567.34
2022-10-09T23:53:02.240Z,100577.28
2022-10-09T23:59:47.596Z,100569.31
